Terminal Aerodrome Forecast
Issued by NWS Rapid City, SD

Home | Current Version | Previous Version | Text Only | Print | Product List | Glossary On
Versions: 1 2 3 4 5 6 7 8 9 10 11 12 13 14 15 16 17 18
487
FTUS43 KUNR 240923 AAB
TAFRAP
TAF AMD
KRAP 240923Z 2409/2506 34016KT 2SM BR VV003
     FM241000 34018KT 1 1/2SM -SN OVC004
     FM241200 34023G33KT 1/2SM SN BLSN OVC003
     FM250000 34020G30KT 3SM -SN BLSN OVC020=

USA.gov is the U.S. government's official web portal to all federal, state and local government web resources and services.